KHSV/HSV METAR and TAF weather

Enter ICAO airport designator
Station Type Date Time Source
KHSV METAR 2020/12/06 00:53 UTC NOAA

KHSV 060053Z 25004KT 10SM CLR 06/02 A3010 RMK AO2 SLP195 T00610022 $


Station Type Date Time Source
KHSV Decoded METAR 2020/12/06 00:53 UTC NOAA

HUNTSVILLE INTERNATIONAL JONES FIELD, AL, United States (KHSV) 34-39N 086-47W 191M
Dec 05, 2020 - 07:53 PM EST / 2020.12.06 0053 UTC
Wind: from the WSW (250 degrees) at 5 MPH (4 KT):0
Visibility: 10 mile(s):0
Sky conditions: clear
Temperature: 43.0 F (6.1 C)
Dew Point: 36.0 F (2.2 C)
Relative Humidity: 76%
Pressure (altimeter): 30.1 in. Hg (1019 hPa)
ob: KHSV 060053Z 25004KT 10SM CLR 06/02 A3010 RMK AO2 SLP195 T00610022
cycle: 1

Station Type Date Time Source
KHSV TAF 2020/12/05 18:22 UTC NOAA

TAF KHSV 051720Z 0518/0618 29005KT P6SM SKC
FM060000 00000KT P6SM SKC
FM060600 00000KT 2SM BR SKC
TEMPO 0610/0613 1/2SM FG VV002
FM061500 20005KT P6SM SCT250

Example: see airport list